This is the latest recevied weather packets stored in our database for station/object K1BWE-1. If no packets are shown the sender has not sent any weather packets the latest 10 day(s).
| Time | Temp. | Humidity | Pressure | Rain* | Wind** | Luminosity | Snow |
|---|---|---|---|---|---|---|---|
| 1778012629 | 22.78° C | 43% | 1012.5 hPa | 0 mm | - | 190 W/m² | - |
| 1778012326 | 22.22° C | 44% | 1012.9 hPa | 0 mm | - | 840 W/m² | - |
| 1778012023 | 21.67° C | 50% | 1013 hPa | 0 mm | - | 819 W/m² | - |
| 1778011721 | 21.67° C | 45% | 1012.7 hPa | 0 mm | - | 818 W/m² | - |
| 1778011418 | 21.67° C | 51% | 1013.1 hPa | 0 mm | - | 776 W/m² | - |
| 1778010508 | 19.44° C | 57% | 1013.2 hPa | 0 mm | - | 819 W/m² | - |
| 1778009900 | 20.56° C | 52% | 1013 hPa | 0 mm | - | 249 W/m² | - |
| 1778009598 | 20° C | 56% | 1013.3 hPa | 0 mm | - | 478 W/m² | - |
| 1778009296 | 20.56° C | 55% | 1013.2 hPa | 0 mm | - | 230 W/m² | - |
| 1778008994 | 20.56° C | 55% | 1013 hPa | 0 mm | - | 314 W/m² | - |
| 1778008691 | 21.67° C | 53% | 1013.2 hPa | 0 mm | - | 870 W/m² | - |
| 1778008390 | 20.56° C | 56% | 1013.3 hPa | 0 mm | - | 851 W/m² | - |
| 1778008086 | 20.56° C | 59% | 1013.6 hPa | 0 mm | - | 884 W/m² | - |
| 1778007781 | 20° C | 57% | 1013.7 hPa | 0 mm | - | 252 W/m² | - |
| 1778007477 | 19.44° C | 57% | 1013.8 hPa | 0 mm | - | 856 W/m² | - |
| 1778007174 | 18.89° C | 61% | 1013.9 hPa | 0 mm | - | 204 W/m² | - |
| 1778006870 | 19.44° C | 59% | 1013.9 hPa | 0 mm | - | 293 W/m² | - |
| 1778006568 | 18.89° C | 62% | 1013.8 hPa | 0 mm | - | 404 W/m² | - |
| 1778006264 | 19.44° C | 58% | 1013.9 hPa | 0 mm | - | 344 W/m² | - |
| 1778005962 | 19.44° C | 59% | 1014 hPa | 0 mm | - | 337 W/m² | - |
| 1778005658 | 19.44° C | 58% | 1014.1 hPa | 0 mm | - | 954 W/m² | - |
| 1778005355 | 18.89° C | 64% | 1014 hPa | 0 mm | - | 909 W/m² | - |
| 1778005051 | 18.33° C | 66% | 1014 hPa | 0 mm | - | 344 W/m² | - |
| 1778004749 | 18.33° C | 64% | 1014.2 hPa | 0 mm | - | 253 W/m² | - |
| 1778004445 | 17.78° C | 64% | 1014.3 hPa | 0 mm | - | 288 W/m² | - |
* Rain latest hour (hover to see other rain measurements)
** Current wind speed in m/s (hover to see current wind gust speed)